Time;durP1;ratioP1;P1;durP2;ratioP2;P2;SDS_P1;SDS_P2;PMS_P1;PMS_P2;Temp;Humidity;BMP_temperature;BMP_pressure;BME280_temperature;BME280_humidity;BME280_pressure;Samples;Min_cycle;Max_cycle;Signal;HPM_P1;HPM_P2
2022/03/10 00:02:19;;;;;;;11.35;6.07;;;;;;;5.80;53.07;102353.00;5034923;28;97750;-38
2022/03/10 00:04:44;;;;;;;16.98;6.88;;;;;;;5.80;53.44;102361.06;5034422;28;99123;-39
2022/03/10 00:07:10;;;;;;;10.35;5.55;;;;;;;5.73;53.24;102354.03;5033550;28;117940;-38
2022/03/10 00:09:35;;;;;;;9.88;4.72;;;;;;;5.73;53.05;102364.78;5028529;28;121783;-38
2022/03/10 00:12:02;;;;;;;14.52;6.45;;;;;;;5.76;53.82;102367.41;5013681;28;121475;-38
2022/03/10 00:14:27;;;;;;;14.15;5.90;;;;;;;5.70;54.20;102360.34;5014395;28;97392;-38
2022/03/10 00:16:53;;;;;;;9.98;5.35;;;;;;;5.69;53.33;102357.66;4996515;28;96709;-39
2022/03/10 00:19:19;;;;;;;10.35;5.35;;;;;;;5.70;53.55;102370.22;5014602;28;96762;-38
2022/03/10 00:21:45;;;;;;;12.35;5.78;;;;;;;5.63;53.47;102355.09;5014376;28;97857;-38
2022/03/10 00:24:10;;;;;;;9.02;3.88;;;;;;;5.67;53.46;102370.25;5013160;28;100761;-39
2022/03/10 00:26:37;;;;;;;7.03;4.50;;;;;;;5.63;54.39;102364.03;5013248;28;122301;-38
2022/03/10 00:29:03;;;;;;;10.48;5.35;;;;;;;5.54;53.89;102361.50;4996143;28;96867;-39
2022/03/10 00:31:28;;;;;;;10.05;6.03;;;;;;;5.56;53.65;102365.06;4995661;28;101058;-39
2022/03/10 00:33:54;;;;;;;11.15;5.10;;;;;;;5.43;53.97;102350.03;5013783;28;97924;-39
2022/03/10 00:36:19;;;;;;;11.55;4.90;;;;;;;5.51;54.59;102361.56;5012984;28;121629;-38
2022/03/10 00:38:44;;;;;;;10.45;5.47;;;;;;;5.41;54.59;102349.16;5013371;28;119843;-39
2022/03/10 00:41:10;;;;;;;10.38;5.65;;;;;;;5.45;54.38;102354.47;5013526;28;99379;-39
2022/03/10 00:43:35;;;;;;;11.10;4.95;;;;;;;5.35;54.91;102344.78;5013792;28;106433;-39
2022/03/10 00:46:02;;;;;;;12.85;6.00;;;;;;;5.36;55.31;102351.91;5014057;28;96657;-38
2022/03/10 00:48:27;;;;;;;8.02;3.90;;;;;;;5.26;54.75;102345.81;5014464;28;96740;-39
2022/03/10 00:50:53;;;;;;;7.13;3.88;;;;;;;5.18;56.02;102336.09;5013836;28;97456;-39
2022/03/10 00:53:18;;;;;;;11.32;4.60;;;;;;;5.29;54.45;102355.63;5013814;28;97832;-38
2022/03/10 00:55:43;;;;;;;12.13;6.40;;;;;;;5.21;55.08;102358.44;5012335;28;123796;-38
2022/03/10 00:58:09;;;;;;;8.88;4.97;;;;;;;5.22;55.13;102351.25;4994688;28;121504;-39
2022/03/10 01:00:34;;;;;;;11.27;5.35;;;;;;;5.19;56.22;102357.56;5013565;28;98078;-38
2022/03/10 01:02:59;;;;;;;10.70;6.18;;;;;;;5.17;55.76;102359.38;5013199;28;112388;-38
2022/03/10 01:05:25;;;;;;;9.55;5.30;;;;;;;5.04;55.93;102347.06;5013767;28;96644;-38
2022/03/10 01:07:50;;;;;;;10.38;4.90;;;;;;;5.05;56.23;102351.50;5013668;28;96767;-38
2022/03/10 01:10:17;;;;;;;11.77;4.50;;;;;;;4.98;55.70;102342.66;5023478;28;97856;-38
2022/03/10 01:12:45;;;;;;;13.27;5.40;;;;;;;5.04;54.69;102356.00;5015641;28;100979;-38
2022/03/10 01:15:12;;;;;;;8.38;4.72;;;;;;;5.02;55.32;102347.06;5015535;28;96582;-38
2022/03/10 01:17:37;;;;;;;12.93;5.07;;;;;;;5.08;55.15;102364.91;5033810;28;96756;-38
2022/03/10 01:20:05;;;;;;;10.82;5.72;;;;;;;4.97;55.22;102351.63;5033121;28;97908;-38
2022/03/10 01:22:30;;;;;;;11.77;5.50;;;;;;;5.00;56.32;102359.63;5015145;28;101403;-38
2022/03/10 01:24:55;;;;;;;8.38;4.97;;;;;;;4.94;55.10;102346.28;5015177;28;96653;-38
2022/03/10 01:27:21;;;;;;;9.20;5.10;;;;;;;4.92;55.48;102348.13;5032834;28;117359;-38
2022/03/10 01:29:46;;;;;;;12.05;5.80;;;;;;;4.96;55.20;102347.16;5032487;28;121815;-38
2022/03/10 01:32:12;;;;;;;13.10;5.63;;;;;;;4.99;55.73;102356.97;5033456;28;97795;-38
2022/03/10 01:34:37;;;;;;;11.10;5.38;;;;;;;4.92;55.64;102344.53;5014932;28;96754;-38
2022/03/10 01:37:03;;;;;;;5.53;3.92;;;;;;;4.97;55.28;102359.66;5033722;28;96831;-38
2022/03/10 01:39:32;;;;;;;9.27;5.30;;;;;;;4.92;55.29;102347.22;5014571;28;100760;-38
2022/03/10 01:41:58;;;;;;;7.10;4.05;;;;;;;4.90;55.57;102360.66;5033097;28;97825;-38
2022/03/10 01:44:24;;;;;;;10.48;5.00;;;;;;;4.89;55.68;102356.22;5014538;28;97093;-38
2022/03/10 01:46:49;;;;;;;8.50;5.18;;;;;;;4.90;55.88;102357.97;5014059;28;96916;-38
2022/03/10 01:49:15;;;;;;;8.63;4.90;;;;;;;4.79;56.14;102344.72;5032645;28;109200;-38
2022/03/10 01:51:41;;;;;;;8.73;4.60;;;;;;;4.84;56.21;102363.44;5032982;28;98248;-38
2022/03/10 01:54:07;;;;;;;10.80;4.78;;;;;;;4.81;56.22;102363.47;4998174;28;96771;-38
2022/03/10 01:56:33;;;;;;;10.18;4.43;;;;;;;4.77;57.29;102359.94;5014892;28;96891;-38
2022/03/10 01:59:01;;;;;;;5.78;3.70;;;;;;;4.68;56.66;102347.53;5032984;28;98214;-38
2022/03/10 02:01:26;;;;;;;10.25;5.07;;;;;;;4.70;57.69;102360.94;5014586;28;100799;-38
2022/03/10 02:03:52;;;;;;;10.48;5.03;;;;;;;4.63;57.51;102354.75;5032934;28;96432;-38
2022/03/10 02:06:17;;;;;;;8.20;4.32;;;;;;;4.59;57.52;102355.69;5032949;28;96794;-38
2022/03/10 02:11:27;;;;;;;7.32;4.07;;;;;;;4.45;58.21;102342.44;5032904;28;97058;-38
2022/03/10 02:13:52;;;;;;;11.93;5.13;;;;;;;4.39;58.19;102339.84;5032666;28;96653;-38
2022/03/10 02:19:05;;;;;;;11.27;4.50;;;;;;;4.38;58.57;102355.94;5032708;28;97100;-38
2022/03/10 02:21:31;;;;;;;4.18;2.72;;;;;;;4.36;59.31;102363.13;5014237;28;100712;-39
2022/03/10 02:23:56;;;;;;;8.80;3.55;;;;;;;4.25;59.24;102347.16;5032529;28;96486;-39
2022/03/10 02:26:22;;;;;;;7.78;5.00;;;;;;;4.23;59.23;102351.66;5031770;28;123400;-38
2022/03/10 02:28:49;;;;;;;5.78;3.67;;;;;;;4.20;59.57;102349.91;5013330;28;128438;-39
2022/03/10 02:31:14;;;;;;;5.10;3.17;;;;;;;4.17;59.96;102360.66;5014139;28;100840;-39
2022/03/10 02:33:40;;;;;;;10.95;4.65;;;;;;;4.10;58.84;102345.53;5031759;27;97266;-38
2022/03/10 02:36:06;;;;;;;15.50;5.40;;;;;;;4.06;58.26;102349.16;5032600;28;96748;-38
2022/03/10 02:38:31;;;;;;;8.77;5.75;;;;;;;4.13;59.65;102361.59;5032394;28;97394;-38
2022/03/10 02:40:57;;;;;;;5.40;3.22;;;;;;;4.10;59.16;102347.31;5031931;28;103559;-39
2022/03/10 02:43:23;;;;;;;6.30;3.90;;;;;;;4.07;60.29;102347.34;5032357;28;96532;-38
2022/03/10 02:45:50;;;;;;;7.88;4.88;;;;;;;4.08;59.97;102351.81;5032387;28;96752;-39
2022/03/10 02:48:17;;;;;;;10.30;5.13;;;;;;;4.04;59.65;102353.63;5013697;28;101030;-38
2022/03/10 02:50:43;;;;;;;8.80;4.85;;;;;;;4.03;58.71;102357.22;5014239;28;100562;-38
2022/03/10 02:53:10;;;;;;;10.75;4.53;;;;;;;4.01;58.44;102365.28;5013894;28;96755;-38
2022/03/10 02:55:36;;;;;;;7.47;4.35;;;;;;;3.95;58.74;102353.72;5014093;28;96796;-38
2022/03/10 02:58:02;;;;;;;6.85;4.47;;;;;;;3.94;58.73;102354.63;5031516;28;98003;-38
2022/03/10 03:00:27;;;;;;;9.68;4.57;;;;;;;3.94;58.80;102349.28;5013435;28;100772;-38
2022/03/10 03:02:52;;;;;;;7.75;3.70;;;;;;;3.90;58.21;102350.19;5032132;28;96606;-39
2022/03/10 03:05:18;;;;;;;9.57;5.80;;;;;;;3.98;58.39;102362.63;5031197;28;119944;-38
2022/03/10 03:07:44;;;;;;;8.80;4.43;;;;;;;4.00;58.53;102365.28;5032004;28;98125;-38
2022/03/10 03:10:10;;;;;;;5.93;4.00;;;;;;;3.99;58.34;102368.88;5012710;28;100490;-38
2022/03/10 03:13:01;;;;;;;5.55;3.28;;;;;;;3.98;60.46;102375.13;5013818;28;96629;-39
2022/03/10 03:15:26;;;;;;;8.30;2.85;;;;;;;3.92;60.36;102375.22;5032143;28;96813;-39
2022/03/10 03:17:51;;;;;;;7.78;4.35;;;;;;;3.81;59.43;102373.53;5031915;28;97958;-38
2022/03/10 03:20:17;;;;;;;7.90;4.60;;;;;;;3.79;60.76;102383.38;5031284;28;118267;-38
2022/03/10 03:22:43;;;;;;;12.18;3.38;;;;;;;3.73;61.03;102380.72;5013127;28;97362;-39
2022/03/10 03:25:11;;;;;;;12.10;5.53;;;;;;;3.73;60.74;102386.06;5013653;28;96835;-38
2022/03/10 03:27:36;;;;;;;6.78;4.20;;;;;;;3.66;60.73;102383.47;5013505;28;101020;-39
2022/03/10 03:30:04;;;;;;;6.30;3.42;;;;;;;3.62;60.40;102379.91;5031409;28;99077;-38
2022/03/10 03:32:29;;;;;;;7.95;3.33;;;;;;;3.66;61.28;102388.81;5013622;28;96642;-38
2022/03/10 03:34:55;;;;;;;9.93;4.70;;;;;;;3.59;59.83;102382.63;5031507;28;96779;-38
2022/03/10 03:37:20;;;;;;;18.23;4.43;;;;;;;3.54;61.13;102377.31;5030881;28;126667;-38
2022/03/10 03:39:45;;;;;;;6.38;3.65;;;;;;;3.51;61.94;102369.28;5030980;28;124798;-38
2022/03/10 03:42:10;;;;;;;7.50;3.42;;;;;;;3.54;62.15;102381.78;5031942;28;96553;-38
2022/03/10 03:44:36;;;;;;;5.15;3.47;;;;;;;3.51;61.15;102392.53;5030775;28;114321;-38
2022/03/10 03:47:01;;;;;;;10.23;5.00;;;;;;;3.50;61.13;102391.59;5030135;28;126824;-38
2022/03/10 03:49:26;;;;;;;5.32;3.55;;;;;;;3.38;61.02;102372.94;5031861;28;97265;-38
2022/03/10 03:51:51;;;;;;;8.38;4.20;;;;;;;3.51;59.34;102390.72;5030703;28;122389;-38
2022/03/10 03:54:17;;;;;;;5.60;2.35;;;;;;;3.48;60.41;102380.03;5031495;28;96781;-38
2022/03/10 03:56:42;;;;;;;10.85;3.58;;;;;;;3.55;60.14;102396.94;5030572;28;126935;-38
2022/03/10 03:59:07;;;;;;;11.90;5.43;;;;;;;3.55;59.46;102396.94;5031242;28;97788;-38
2022/03/10 04:01:33;;;;;;;4.28;3.10;;;;;;;3.52;60.06;102389.81;5031444;28;96829;-38
2022/03/10 04:03:58;;;;;;;7.68;3.40;;;;;;;3.54;59.85;102398.72;5031937;28;96768;-38
2022/03/10 04:06:24;;;;;;;9.23;3.80;;;;;;;3.54;59.65;102398.72;5030674;28;121906;-38
2022/03/10 04:08:50;;;;;;;9.57;4.82;;;;;;;3.62;60.39;102414.75;5031254;27;97782;-38
2022/03/10 04:11:16;;;;;;;8.20;4.82;;;;;;;3.54;60.39;102397.84;5033149;28;97084;-38
2022/03/10 04:13:41;;;;;;;9.23;3.97;;;;;;;3.54;59.89;102397.84;5016217;28;96822;-38
2022/03/10 04:16:07;;;;;;;7.55;4.32;;;;;;;3.53;60.30;102401.44;5034651;28;97868;-38
2022/03/10 04:18:32;;;;;;;8.63;4.20;;;;;;;3.54;60.86;102411.25;5034521;28;97758;-38
2022/03/10 04:20:59;;;;;;;6.82;4.35;;;;;;;3.53;60.76;102402.31;5016417;28;96569;-38
2022/03/10 04:23:24;;;;;;;5.55;3.10;;;;;;;3.53;60.83;102393.41;5034640;28;96765;-38
2022/03/10 04:25:50;;;;;;;8.02;4.20;;;;;;;3.48;61.11;102400.56;5034315;28;97413;-38
2022/03/10 04:28:15;;;;;;;7.88;4.32;;;;;;;3.44;61.09;102394.34;5033759;28;121464;-38
2022/03/10 04:30:41;;;;;;;7.88;3.90;;;;;;;3.50;59.87;102405.00;5034286;28;100458;-38
2022/03/10 04:33:06;;;;;;;12.25;4.55;;;;;;;3.54;60.72;102413.91;5034541;28;96762;-38
2022/03/10 04:35:32;;;;;;;6.28;3.90;;;;;;;3.46;60.22;102403.28;5033441;27;97887;-38
2022/03/10 04:37:57;;;;;;;7.05;3.28;;;;;;;3.48;61.15;102420.22;5034349;28;98504;-38
2022/03/10 04:40:23;;;;;;;5.32;3.38;;;;;;;3.46;60.47;102410.41;5034306;28;96507;-38
2022/03/10 04:42:49;;;;;;;5.57;3.80;;;;;;;3.49;60.97;102423.78;5033953;28;96819;-38
2022/03/10 04:45:15;;;;;;;8.95;5.03;;;;;;;3.45;60.98;102422.91;5034016;28;97836;-38
2022/03/10 04:47:41;;;;;;;7.97;4.38;;;;;;;3.47;60.57;102423.78;5034193;28;97807;-38
2022/03/10 04:50:09;;;;;;;6.60;3.75;;;;;;;3.46;61.21;102423.81;5034258;28;96483;-38
2022/03/10 04:52:34;;;;;;;9.00;4.88;;;;;;;3.43;60.50;102418.44;5034449;28;96723;-38
2022/03/10 04:55:00;;;;;;;3.95;3.05;;;;;;;3.38;61.53;102415.81;5015723;28;100960;-38
2022/03/10 04:57:25;;;;;;;8.52;4.85;;;;;;;3.30;61.53;102397.13;5033375;28;99187;-38
2022/03/10 04:59:50;;;;;;;9.20;4.60;;;;;;;3.31;61.67;102408.72;5032830;28;107636;-38
2022/03/10 05:02:16;;;;;;;5.95;3.25;;;;;;;3.27;61.61;102402.50;5032803;28;118915;-38
2022/03/10 05:04:41;;;;;;;5.38;3.83;;;;;;;3.30;60.80;102410.50;5033807;28;97309;-38
2022/03/10 05:07:06;;;;;;;6.60;4.22;;;;;;;3.18;60.67;102398.06;5033759;28;97522;-38
2022/03/10 05:09:32;;;;;;;5.90;3.60;;;;;;;3.15;61.75;102390.06;5033244;28;103845;-37
2022/03/10 05:11:57;;;;;;;12.70;4.30;;;;;;;3.11;61.63;102395.44;5033918;28;96721;-38
2022/03/10 05:14:24;;;;;;;5.93;3.58;;;;;;;3.13;62.20;102399.00;5032635;28;126654;-38
2022/03/10 05:16:49;;;;;;;9.00;4.90;;;;;;;3.13;62.28;102404.38;5034073;28;97892;-38
2022/03/10 05:19:14;;;;;;;9.52;5.13;;;;;;;3.06;62.68;102391.91;5033503;28;96526;-38
2022/03/10 05:21:39;;;;;;;6.32;4.10;;;;;;;3.10;62.17;102407.03;5013435;28;115233;-38
2022/03/10 05:24:06;;;;;;;3.42;2.65;;;;;;;3.01;62.74;102388.38;5032980;28;97319;-38
2022/03/10 05:26:31;;;;;;;6.75;4.60;;;;;;;3.06;61.16;102403.50;5033260;28;97849;-38
2022/03/10 05:28:56;;;;;;;4.05;3.15;;;;;;;2.99;62.02;102385.69;5033831;28;96559;-38
2022/03/10 05:31:38;;;;;;;8.50;3.22;;;;;;;2.97;63.03;102404.44;5033630;28;96736;-38
2022/03/10 05:34:04;;;;;;;5.95;3.85;;;;;;;2.98;62.20;102405.34;5014692;28;100873;-38
2022/03/10 05:36:29;;;;;;;6.10;3.13;;;;;;;2.87;62.67;102397.34;5013970;28;127789;-38
2022/03/10 05:38:54;;;;;;;6.60;3.10;;;;;;;2.94;61.77;102406.25;5033367;28;96448;-38
2022/03/10 05:41:19;;;;;;;10.25;3.13;;;;;;;2.84;63.57;102393.81;5033035;28;107170;-38
2022/03/10 05:43:45;;;;;;;7.07;4.47;;;;;;;2.86;62.99;102402.69;5032419;28;122455;-38
2022/03/10 05:46:10;;;;;;;5.07;3.42;;;;;;;2.87;61.76;102396.47;5033206;28;97785;-39
2022/03/10 05:48:35;;;;;;;5.55;3.25;;;;;;;2.94;62.28;102409.81;5014412;28;102994;-38
2022/03/10 05:51:01;;;;;;;7.65;4.50;;;;;;;2.94;62.88;102408.91;5014025;28;122904;-38
2022/03/10 05:53:28;;;;;;;12.50;4.45;;;;;;;2.86;62.19;102390.22;5033074;28;97854;-38
2022/03/10 05:55:54;;;;;;;5.47;3.33;;;;;;;2.89;62.86;102406.25;5032757;28;99304;-38
2022/03/10 05:58:19;;;;;;;9.73;4.78;;;;;;;2.93;62.38;102410.72;5014740;28;96693;-38
2022/03/10 06:00:45;;;;;;;4.57;3.13;;;;;;;2.90;62.36;102408.03;5032323;28;108037;-38
2022/03/10 06:03:10;;;;;;;9.55;4.15;;;;;;;2.93;62.13;102423.19;5032887;28;97452;-38
2022/03/10 06:05:36;;;;;;;10.57;4.63;;;;;;;2.92;62.75;102416.94;5033139;28;97804;-38
2022/03/10 06:08:01;;;;;;;5.55;4.03;;;;;;;2.87;62.81;102402.69;5033142;28;96712;-39
2022/03/10 06:10:27;;;;;;;3.40;2.58;;;;;;;2.91;63.22;102411.63;5022487;28;96916;-38
2022/03/10 06:12:52;;;;;;;5.68;2.10;;;;;;;2.87;62.60;102410.72;5011384;28;117569;-38
2022/03/10 06:15:18;;;;;;;6.47;3.17;;;;;;;2.92;62.86;102416.94;5012261;28;98017;-38
2022/03/10 06:17:43;;;;;;;6.75;4.05;;;;;;;2.86;63.25;102411.66;4994585;28;96677;-38
2022/03/10 06:20:11;;;;;;;11.00;5.40;;;;;;;2.83;62.96;102402.72;5012504;28;96769;-39
2022/03/10 06:22:36;;;;;;;3.58;2.97;;;;;;;2.89;62.66;102416.97;4994306;28;101800;-39
2022/03/10 06:25:03;;;;;;;6.22;3.45;;;;;;;2.79;62.26;102400.94;5012353;28;97769;-38
2022/03/10 06:27:29;;;;;;;6.10;3.97;;;;;;;2.85;63.55;102407.16;4994385;28;97500;-38
2022/03/10 06:29:55;;;;;;;5.82;3.65;;;;;;;2.75;63.13;102395.63;5012873;28;96782;-38
2022/03/10 06:32:22;;;;;;;7.60;3.55;;;;;;;2.76;63.24;102392.06;5010651;28;97651;-38
2022/03/10 06:34:49;;;;;;;7.32;3.53;;;;;;;2.76;63.07;102399.19;5011804;28;98856;-38
2022/03/10 06:37:15;;;;;;;6.00;3.13;;;;;;;2.81;64.37;102413.41;4993704;28;97053;-38
2022/03/10 06:39:40;;;;;;;4.65;3.22;;;;;;;2.79;63.46;102415.25;4994326;28;96858;-38
2022/03/10 06:42:06;;;;;;;6.25;3.83;;;;;;;2.82;63.57;102417.00;5012604;28;97243;-38
2022/03/10 06:44:33;;;;;;;4.25;2.95;;;;;;;2.77;63.28;102398.31;5012047;28;97851;-38
2022/03/10 06:46:58;;;;;;;6.45;3.83;;;;;;;2.82;62.92;102407.19;4994005;28;96607;-38
2022/03/10 06:49:24;;;;;;;4.78;2.25;;;;;;;2.82;62.88;102408.97;5012218;28;96790;-38
2022/03/10 06:51:49;;;;;;;6.97;4.50;;;;;;;2.75;63.55;102400.97;5011540;28;105469;-38
2022/03/10 06:54:16;;;;;;;5.45;3.63;;;;;;;2.79;64.09;102408.97;5012368;28;97798;-38
2022/03/10 06:56:41;;;;;;;3.05;2.40;;;;;;;2.78;64.12;102402.75;4993987;28;96669;-38
2022/03/10 06:59:06;;;;;;;7.28;4.55;;;;;;;2.86;63.94;102411.66;5011919;28;96617;-38
2022/03/10 07:01:33;;;;;;;5.45;3.15;;;;;;;2.88;62.43;102404.47;5010937;28;107162;-38
2022/03/10 07:03:59;;;;;;;4.75;3.67;;;;;;;2.97;63.11;102415.13;4993670;28;100944;-38
2022/03/10 07:06:25;;;;;;;7.38;4.55;;;;;;;3.06;62.77;102422.25;5011754;28;96484;-38
2022/03/10 07:08:51;;;;;;;9.32;3.50;;;;;;;3.04;61.57;102405.28;4993864;28;96819;-38
2022/03/10 07:11:17;;;;;;;4.45;3.05;;;;;;;3.12;61.41;102413.28;5028235;28;99227;-38
2022/03/10 07:13:44;;;;;;;6.28;4.35;;;;;;;3.27;61.78;102431.06;5013723;28;100943;-38
2022/03/10 07:16:09;;;;;;;8.23;4.28;;;;;;;3.35;61.68;102432.78;5032054;28;96581;-38
2022/03/10 07:18:34;;;;;;;6.78;3.60;;;;;;;3.41;62.02;102431.88;5032449;28;96805;-38
2022/03/10 07:21:00;;;;;;;5.45;3.60;;;;;;;3.47;62.54;102438.97;5013375;28;99331;-38
2022/03/10 07:23:25;;;;;;;5.38;3.88;;;;;;;3.54;61.59;102440.72;5031688;28;98328;-38
2022/03/10 07:25:54;;;;;;;4.78;1.95;;;;;;;3.59;62.24;102422.81;5031268;28;96571;-38
2022/03/10 07:28:20;;;;;;;7.55;4.40;;;;;;;3.75;62.64;102432.53;5031953;28;96769;-38
2022/03/10 07:30:45;;;;;;;2.92;1.67;;;;;;;3.89;62.50;102444.94;5013198;28;106224;-38
2022/03/10 07:33:11;;;;;;;4.85;3.00;;;;;;;3.99;61.88;102446.63;5031734;28;97741;-38
2022/03/10 07:35:36;;;;;;;9.85;4.90;;;;;;;4.15;61.42;102447.41;5031475;27;96712;-38
2022/03/10 07:38:01;;;;;;;10.13;5.07;;;;;;;4.22;60.95;102438.38;5031004;28;116019;-38
2022/03/10 07:40:27;;;;;;;5.63;3.42;;;;;;;4.43;61.73;102442.63;5031442;28;99532;-38
2022/03/10 07:42:52;;;;;;;8.27;4.22;;;;;;;4.59;61.37;102444.25;5031927;28;97776;-38
2022/03/10 07:45:17;;;;;;;5.85;3.80;;;;;;;4.68;59.55;102433.41;5032585;28;109599;-38
2022/03/10 07:47:43;;;;;;;5.85;3.70;;;;;;;4.80;59.89;102439.56;5035485;28;96760;-38
2022/03/10 07:50:09;;;;;;;13.05;4.40;;;;;;;4.93;60.32;102433.09;5034203;28;106087;-38
2022/03/10 07:52:34;;;;;;;6.00;3.00;;;;;;;5.07;59.55;102436.50;5034653;28;99365;-38
2022/03/10 07:55:00;;;;;;;13.98;4.88;;;;;;;5.23;58.80;102447.06;5035100;28;96629;-38
2022/03/10 07:57:25;;;;;;;9.70;4.25;;;;;;;5.30;59.16;102438.00;5033777;28;96865;-37
2022/03/10 07:59:51;;;;;;;10.68;3.85;;;;;;;5.45;58.65;102443.16;5034977;28;97921;-37
2022/03/10 08:02:17;;;;;;;9.70;3.85;;;;;;;5.55;58.47;102435.84;5016245;28;98891;-37
2022/03/10 08:04:43;;;;;;;7.15;4.07;;;;;;;5.67;58.37;102434.75;5034930;28;96600;-37
2022/03/10 08:07:08;;;;;;;9.82;4.57;;;;;;;5.84;58.52;102439.88;5035034;28;96825;-37
2022/03/10 08:09:34;;;;;;;8.50;4.80;;;;;;;5.91;57.43;102434.38;5031809;28;97444;-36
2022/03/10 08:12:00;;;;;;;9.23;4.95;;;;;;;5.95;58.26;102438.81;5014695;28;97834;-37
2022/03/10 08:14:25;;;;;;;5.40;3.08;;;;;;;6.04;58.47;102432.41;5014185;28;96603;-37
2022/03/10 08:16:50;;;;;;;8.30;4.90;;;;;;;6.19;57.50;102438.44;5013355;28;118414;-37
2022/03/10 08:19:16;;;;;;;7.80;3.63;;;;;;;6.27;57.74;102434.69;5014367;28;97912;-37
2022/03/10 08:21:42;;;;;;;7.38;4.57;;;;;;;6.40;57.80;102440.72;5014063;28;97911;-37
2022/03/10 08:24:07;;;;;;;12.07;4.50;;;;;;;6.40;58.02;102426.41;5014390;28;96592;-37
2022/03/10 08:26:32;;;;;;;7.45;4.38;;;;;;;6.47;57.45;102420.84;5014281;28;96784;-37
2022/03/10 08:28:58;;;;;;;12.07;5.13;;;;;;;6.56;57.37;102426.06;5014355;28;97864;-37
2022/03/10 08:31:23;;;;;;;10.13;4.53;;;;;;;6.59;57.31;102419.75;5014575;28;97797;-37
2022/03/10 08:33:50;;;;;;;8.60;4.50;;;;;;;6.59;57.02;102406.28;5014081;28;96595;-37
2022/03/10 08:36:16;;;;;;;7.00;3.50;;;;;;;6.72;57.67;102425.75;5013951;28;97005;-37
2022/03/10 08:38:41;;;;;;;6.53;4.00;;;;;;;6.71;57.56;102415.91;5013276;28;99448;-37
2022/03/10 08:41:06;;;;;;;6.65;3.35;;;;;;;6.79;57.33;102422.03;5013702;28;97275;-35
2022/03/10 08:43:32;;;;;;;8.68;4.07;;;;;;;6.80;57.35;102418.44;5013931;28;96579;-37
2022/03/10 08:45:58;;;;;;;13.68;5.60;;;;;;;6.90;56.89;102419.13;5014019;28;96725;-37
2022/03/10 08:48:24;;;;;;;5.25;2.78;;;;;;;6.87;57.78;102405.72;4995840;28;100888;-37
2022/03/10 08:50:50;;;;;;;7.25;4.03;;;;;;;6.92;57.25;102410.09;4995502;28;101551;-37
2022/03/10 08:53:15;;;;;;;8.15;4.10;;;;;;;6.92;56.91;102401.13;5013988;28;96404;-37
2022/03/10 08:55:41;;;;;;;15.00;5.00;;;;;;;6.98;57.52;102407.28;5014144;28;96640;-37
2022/03/10 08:58:06;;;;;;;10.40;4.43;;;;;;;7.00;56.96;102402.72;5013473;28;100796;-37
2022/03/10 09:00:32;;;;;;;13.73;5.35;;;;;;;7.05;56.90;102399.03;5013234;28;99135;-37
2022/03/10 09:02:58;;;;;;;13.60;5.10;;;;;;;7.15;56.84;102414.06;5013121;28;96706;-37
2022/03/10 09:05:23;;;;;;;12.82;6.10;;;;;;;7.19;57.14;102408.59;5013426;28;97423;-37
2022/03/10 09:07:48;;;;;;;7.72;4.55;;;;;;;7.18;57.31;102401.44;5013825;28;97300;-37
2022/03/10 09:10:14;;;;;;;7.68;3.58;;;;;;;7.23;56.77;102396.81;5021343;28;97293;-37
2022/03/10 09:12:39;;;;;;;7.30;4.70;;;;;;;7.35;57.22;102405.56;5033903;28;96642;-37
2022/03/10 09:15:06;;;;;;;7.28;4.78;;;;;;;7.41;56.48;102405.41;5033917;28;96761;-37
2022/03/10 09:17:32;;;;;;;7.40;3.88;;;;;;;7.41;56.70;102400.91;5033414;28;100587;-37
2022/03/10 09:19:57;;;;;;;9.00;4.15;;;;;;;7.49;56.32;102398.03;5033765;28;97252;-37
2022/03/10 09:22:25;;;;;;;15.00;4.63;;;;;;;7.62;56.24;102399.50;5033715;28;96616;-37
2022/03/10 09:24:51;;;;;;;9.98;5.03;;;;;;;7.70;56.34;102390.34;5033499;28;96523;-37
2022/03/10 09:27:16;;;;;;;5.60;3.10;;;;;;;7.82;56.33;102396.31;5033040;28;98120;-37
2022/03/10 09:29:41;;;;;;;7.25;3.38;;;;;;;7.90;56.22;102392.56;5032727;28;122578;-37
2022/03/10 09:32:07;;;;;;;7.00;3.28;;;;;;;8.00;55.80;102386.84;5033561;28;96780;-37
2022/03/10 09:34:32;;;;;;;11.32;5.38;;;;;;;8.12;55.84;102374.84;5033148;27;97559;-37
2022/03/10 09:36:57;;;;;;;12.15;4.57;;;;;;;8.28;55.75;102376.22;5033306;28;97887;-37
2022/03/10 09:39:23;;;;;;;10.75;5.22;;;;;;;8.46;55.34;102376.66;5033694;28;97864;-37
2022/03/10 09:41:48;;;;;;;8.45;3.17;;;;;;;8.62;55.02;102377.13;5032762;28;110785;-37
2022/03/10 09:44:17;;;;;;;8.60;4.15;;;;;;;8.78;54.68;102374.88;5033703;28;96794;-37
2022/03/10 09:46:44;;;;;;;11.10;5.05;;;;;;;8.95;54.66;102363.56;5014843;28;101143;-37
2022/03/10 09:49:10;;;;;;;14.68;5.57;;;;;;;9.11;53.96;102365.75;5014863;28;100956;-37
2022/03/10 09:51:36;;;;;;;14.60;5.60;;;;;;;9.25;53.83;102353.63;5032797;28;96538;-37
2022/03/10 09:54:02;;;;;;;13.23;5.15;;;;;;;9.66;53.57;102373.03;5014940;28;96899;-37
2022/03/10 09:56:27;;;;;;;11.45;5.35;;;;;;;9.92;52.88;102358.59;5033099;28;96722;-37
2022/03/10 09:58:53;;;;;;;14.30;5.10;;;;;;;10.18;52.46;102366.69;5032998;28;97929;-37
2022/03/10 10:01:18;;;;;;;14.90;5.22;;;;;;;10.47;52.19;102348.53;5033119;28;97086;-37
2022/03/10 10:03:43;;;;;;;14.45;5.00;;;;;;;10.73;51.34;102354.81;5032828;28;96902;-37
2022/03/10 10:06:08;;;;;;;14.15;5.80;;;;;;;10.97;51.11;102353.84;5032722;28;97451;-37
2022/03/10 10:08:34;;;;;;;9.32;4.95;;;;;;;11.28;50.50;102355.34;5032355;28;99568;-37
2022/03/10 10:11:01;;;;;;;10.73;5.55;;;;;;;11.48;49.88;102358.13;5014066;28;96830;-37
2022/03/10 10:13:32;;;;;;;14.52;5.47;;;;;;;11.76;49.78;102361.53;5014518;28;96878;-37
2022/03/10 10:16:06;;;;;;;12.55;5.82;;;;;;;11.96;49.59;102361.59;5032185;28;97906;-37
2022/03/10 10:18:32;;;;;;;10.40;5.40;;;;;;;12.24;49.57;102357.69;5014259;28;100958;-37
2022/03/10 10:20:58;;;;;;;13.93;5.60;;;;;;;12.57;48.64;102358.00;5032750;28;96516;-37
2022/03/10 10:23:29;;;;;;;14.57;6.25;;;;;;;12.80;48.28;102356.94;5014671;28;96887;-37
2022/03/10 10:26:01;;;;;;;11.95;5.05;;;;;;;13.01;48.00;102357.75;5032289;28;99104;-37
2022/03/10 10:28:29;;;;;;;12.63;5.63;;;;;;;13.14;47.97;102339.88;5014305;28;101007;-37
2022/03/10 10:31:02;;;;;;;12.75;5.80;;;;;;;13.38;47.52;102336.97;5032456;28;96606;-37
2022/03/10 10:33:30;;;;;;;12.20;5.53;;;;;;;13.43;46.83;102340.31;5033112;28;96633;-37
2022/03/10 10:36:13;;;;;;;13.40;5.50;;;;;;;13.64;46.86;102343.81;5031967;28;97806;-37
2022/03/10 10:38:40;;;;;;;14.07;4.65;;;;;;;13.79;46.57;102337.59;5032042;28;99268;-37
2022/03/10 10:41:28;;;;;;;13.50;5.78;;;;;;;13.91;45.59;102335.19;5013515;28;97377;-37
2022/03/10 10:44:19;;;;;;;8.45;4.65;;;;;;;14.08;45.55;102342.50;5014238;28;98246;-37
2022/03/10 10:46:48;;;;;;;8.35;4.68;;;;;;;14.15;44.78;102325.72;5032122;28;99464;-37
2022/03/10 10:49:16;;;;;;;15.93;5.97;;;;;;;14.26;45.33;102335.19;5013869;28;100884;-37
2022/03/10 10:51:44;;;;;;;10.77;5.18;;;;;;;14.36;44.97;102320.97;5013806;28;96733;-37
2022/03/10 10:54:25;;;;;;;12.77;5.07;;;;;;;14.58;43.92;102325.28;5032095;28;96824;-37
2022/03/10 10:56:55;;;;;;;12.05;5.78;;;;;;;14.65;43.83;102330.31;5032282;28;98140;-37
2022/03/10 10:59:31;;;;;;;11.80;5.78;;;;;;;14.68;43.33;102318.38;5032656;28;97911;-37
2022/03/10 11:02:19;;;;;;;11.63;5.07;;;;;;;14.91;43.50;102318.94;5013489;28;96932;-37
2022/03/10 11:04:49;;;;;;;9.73;4.47;;;;;;;14.97;43.72;102321.31;5013890;28;96926;-37
2022/03/10 11:07:14;;;;;;;12.35;5.00;;;;;;;15.07;43.45;102311.66;5013217;28;101417;-37
2022/03/10 11:09:45;;;;;;;13.35;5.03;;;;;;;15.18;42.80;102311.94;5031318;28;99111;-36
2022/03/10 11:12:13;;;;;;;12.73;4.75;;;;;;;15.27;43.01;102292.25;5032093;28;96613;-37
2022/03/10 11:14:43;;;;;;;18.00;6.20;;;;;;;15.48;42.50;102283.78;5031823;28;96825;-37
2022/03/10 11:17:09;;;;;;;11.15;5.03;;;;;;;15.66;40.75;102296.34;5031799;28;99490;-37
2022/03/10 11:19:37;;;;;;;12.07;5.78;;;;;;;15.85;42.24;102292.53;5033606;28;100781;-37
2022/03/10 11:22:19;;;;;;;11.80;5.85;;;;;;;15.88;41.55;102292.38;5035388;28;96612;-37
2022/03/10 11:25:18;;;;;;;9.37;4.60;;;;;;;16.07;41.20;102295.72;5017506;28;96860;-37
2022/03/10 11:27:56;;;;;;;13.50;5.53;;;;;;;16.08;40.71;102291.13;5035596;28;98011;-37
2022/03/10 11:30:26;;;;;;;14.98;5.10;;;;;;;16.28;40.78;102287.16;5017107;28;100998;-37